Time;durP1;ratioP1;P1;durP2;ratioP2;P2;SDS_P1;SDS_P2;PMS_P1;PMS_P2;Temp;Humidity;BMP_temperature;BMP_pressure;BME280_temperature;BME280_humidity;BME280_pressure;Samples;Min_cycle;Max_cycle;Signal;HPM_P1;HPM_P2
2021/05/19 00:01:32;;;;;;;0.55;0.40;;;22.00;51.40;;;;;;5013234;28;20033;-35
2021/05/19 00:03:58;;;;;;;0.70;0.50;;;22.00;51.40;;;;;;5001660;28;20029;-35
2021/05/19 00:06:23;;;;;;;0.88;0.77;;;22.00;51.30;;;;;;5002135;28;20099;-36
2021/05/19 00:08:49;;;;;;;1.38;0.63;;;22.00;52.00;;;;;;5017311;28;20136;-35
2021/05/19 00:11:15;;;;;;;1.88;0.45;;;22.00;51.30;;;;;;5017042;28;20120;-36
2021/05/19 00:13:41;;;;;;;1.92;0.40;;;22.00;51.30;;;;;;5016493;28;20026;-36
2021/05/19 00:16:07;;;;;;;0.75;0.60;;;22.00;51.20;;;;;;5016849;28;20034;-44
2021/05/19 00:18:34;;;;;;;0.77;0.50;;;22.00;51.20;;;;;;5022787;28;20033;-35
2021/05/19 00:21:00;;;;;;;0.77;0.40;;;22.00;51.20;;;;;;5030946;28;20037;-35
2021/05/19 00:23:26;;;;;;;0.93;0.40;;;22.00;51.20;;;;;;5028022;28;20034;-42
2021/05/19 00:25:52;;;;;;;0.82;0.50;;;22.00;51.20;;;;;;5033719;28;20025;-35
2021/05/19 00:28:18;;;;;;;1.45;0.52;;;22.00;51.30;;;;;;5032083;28;20454;-37
2021/05/19 00:30:45;;;;;;;1.20;0.80;;;22.00;51.80;;;;;;5029029;28;20564;-36
2021/05/19 00:33:11;;;;;;;0.85;0.68;;;22.00;51.50;;;;;;5029691;28;20040;-35
2021/05/19 00:35:37;;;;;;;0.80;0.60;;;22.00;51.10;;;;;;5028933;28;20037;-36
2021/05/19 00:38:02;;;;;;;0.82;0.50;;;22.00;51.80;;;;;;5031351;28;20025;-40
2021/05/19 00:40:29;;;;;;;0.80;0.57;;;22.00;51.20;;;;;;5030192;28;20425;-45
2021/05/19 00:42:55;;;;;;;0.82;0.60;;;22.00;51.20;;;;;;5027433;28;20453;-36
2021/05/19 00:45:21;;;;;;;1.45;0.52;;;22.00;51.30;;;;;;5030745;28;20108;-36
2021/05/19 00:47:47;;;;;;;1.00;0.50;;;22.00;51.20;;;;;;5029401;28;20097;-36
2021/05/19 00:50:19;;;;;;;1.33;0.47;;;22.00;51.30;;;;;;5030458;28;20021;-35
2021/05/19 00:52:45;;;;;;;0.75;0.50;;;22.00;51.30;;;;;;5030175;28;20551;-35
2021/05/19 00:55:11;;;;;;;1.10;0.50;;;22.00;51.20;;;;;;5030629;28;20029;-35
2021/05/19 00:57:38;;;;;;;2.25;0.45;;;22.00;51.20;;;;;;5030882;28;20045;-36
2021/05/19 01:00:06;;;;;;;1.27;0.50;;;22.00;51.30;;;;;;5029153;28;20479;-37
2021/05/19 01:02:31;;;;;;;1.13;0.50;;;22.00;51.20;;;;;;5028096;28;20029;-35
2021/05/19 01:04:57;;;;;;;0.40;0.35;;;22.00;51.20;;;;;;5030607;28;20414;-35
2021/05/19 01:07:27;;;;;;;1.90;0.50;;;22.00;51.10;;;;;;5030558;28;20036;-39
2021/05/19 01:09:54;;;;;;;1.23;0.73;;;22.00;51.10;;;;;;5030567;28;20021;-37
2021/05/19 01:12:23;;;;;;;0.65;0.50;;;22.00;51.10;;;;;;5026734;28;20376;-35
2021/05/19 01:14:51;;;;;;;1.30;0.50;;;22.00;51.10;;;;;;5024591;28;20029;-35
2021/05/19 01:17:17;;;;;;;0.82;0.50;;;22.00;51.00;;;;;;5030750;28;20484;-46
2021/05/19 01:19:53;;;;;;;0.82;0.70;;;22.00;51.00;;;;;;5033857;28;20067;-35
2021/05/19 01:22:28;;;;;;;1.42;0.63;;;21.90;50.90;;;;;;5028371;28;20467;-35
2021/05/19 01:24:55;;;;;;;0.50;0.40;;;21.90;50.90;;;;;;5030556;28;20494;-35
2021/05/19 01:27:22;;;;;;;0.63;0.40;;;21.90;50.90;;;;;;5032791;28;20030;-35
2021/05/19 01:29:50;;;;;;;1.92;0.40;;;21.90;50.90;;;;;;5030814;28;20029;-35
2021/05/19 01:32:16;;;;;;;1.05;0.50;;;21.90;50.90;;;;;;5031706;28;20025;-34
2021/05/19 01:34:42;;;;;;;0.73;0.50;;;22.00;50.90;;;;;;5029966;28;20087;-35
2021/05/19 01:37:12;;;;;;;0.55;0.50;;;21.90;50.80;;;;;;5031873;28;20029;-35
2021/05/19 01:39:37;;;;;;;0.90;0.52;;;22.00;50.90;;;;;;5030664;28;20119;-35
2021/05/19 01:42:03;;;;;;;1.27;0.50;;;22.00;50.80;;;;;;5030271;28;20061;-35
2021/05/19 01:44:29;;;;;;;0.57;0.40;;;21.90;50.80;;;;;;5030343;28;20077;-42
2021/05/19 01:46:55;;;;;;;1.73;0.43;;;22.00;50.80;;;;;;5031219;28;20025;-35
2021/05/19 01:49:25;;;;;;;0.70;0.40;;;22.00;50.80;;;;;;5031451;28;20505;-35
2021/05/19 01:51:52;;;;;;;1.02;0.50;;;21.90;50.70;;;;;;5030491;28;20029;-35
2021/05/19 01:54:20;;;;;;;1.10;0.50;;;21.90;50.70;;;;;;5031319;28;20025;-35
2021/05/19 01:56:46;;;;;;;0.95;0.52;;;22.00;50.70;;;;;;5030318;28;20041;-35
2021/05/19 01:59:11;;;;;;;2.00;0.40;;;21.90;50.60;;;;;;5030262;28;20054;-34
2021/05/19 02:01:37;;;;;;;0.77;0.50;;;21.90;50.60;;;;;;5034408;28;20432;-38
2021/05/19 02:04:11;;;;;;;0.45;0.40;;;22.00;50.60;;;;;;5033911;28;20474;-35
2021/05/19 02:06:50;;;;;;;1.85;0.65;;;21.90;50.60;;;;;;5030151;28;20041;-35
2021/05/19 02:09:18;;;;;;;0.65;0.30;;;22.00;50.70;;;;;;5034059;28;20033;-35
2021/05/19 02:11:44;;;;;;;1.13;0.40;;;21.90;50.60;;;;;;5034355;28;20033;-35
2021/05/19 02:14:11;;;;;;;1.15;0.63;;;21.90;50.60;;;;;;5035201;28;20497;-35
2021/05/19 02:16:37;;;;;;;0.70;0.50;;;21.90;50.60;;;;;;5032986;28;20593;-35
2021/05/19 02:19:03;;;;;;;1.50;0.40;;;21.90;50.60;;;;;;5034619;28;20041;-35
2021/05/19 02:21:29;;;;;;;1.00;0.40;;;21.90;50.60;;;;;;5034242;28;20033;-42
2021/05/19 02:23:57;;;;;;;1.00;0.65;;;21.90;50.60;;;;;;5033414;28;20037;-36
2021/05/19 02:26:23;;;;;;;1.45;0.50;;;21.90;50.60;;;;;;5034439;28;20029;-35
2021/05/19 02:28:49;;;;;;;0.70;0.40;;;21.90;50.50;;;;;;5033889;28;20032;-35
2021/05/19 02:31:14;;;;;;;0.60;0.30;;;21.90;50.50;;;;;;5034632;28;20026;-35
2021/05/19 02:33:40;;;;;;;1.85;0.43;;;21.90;50.50;;;;;;5032654;28;20030;-35
2021/05/19 02:36:06;;;;;;;0.93;0.40;;;21.90;50.40;;;;;;5037060;28;20029;-35
2021/05/19 02:38:34;;;;;;;0.30;0.30;;;22.00;50.50;;;;;;5033871;28;20111;-38
2021/05/19 02:41:00;;;;;;;1.45;0.50;;;21.90;50.40;;;;;;5034479;28;20055;-35
2021/05/19 02:43:26;;;;;;;1.10;0.50;;;21.90;50.40;;;;;;5033185;28;20053;-35
2021/05/19 02:45:52;;;;;;;0.90;0.50;;;21.90;50.50;;;;;;5031758;28;20862;-35
2021/05/19 02:48:17;;;;;;;1.20;0.40;;;21.90;50.40;;;;;;5033171;28;20025;-35
2021/05/19 02:50:43;;;;;;;0.40;0.40;;;21.90;50.40;;;;;;5033424;28;20033;-35
2021/05/19 02:53:09;;;;;;;1.70;0.40;;;21.90;50.40;;;;;;5033871;28;20410;-35
2021/05/19 02:55:34;;;;;;;1.52;0.45;;;21.90;50.40;;;;;;5033342;28;20025;-36
2021/05/19 02:58:00;;;;;;;0.63;0.40;;;22.00;50.50;;;;;;5035400;28;20026;-35
2021/05/19 03:00:26;;;;;;;0.60;0.30;;;22.00;50.50;;;;;;5027707;28;20061;-35
2021/05/19 03:02:53;;;;;;;0.90;0.45;;;21.90;50.40;;;;;;5033451;28;20029;-35
2021/05/19 03:05:19;;;;;;;0.47;0.45;;;22.00;50.50;;;;;;5033984;28;20037;-35
2021/05/19 03:07:45;;;;;;;0.50;0.38;;;21.90;50.40;;;;;;5033107;28;20032;-35
2021/05/19 03:10:13;;;;;;;0.98;0.50;;;22.00;50.50;;;;;;5033738;28;20029;-35
2021/05/19 03:12:38;;;;;;;0.47;0.40;;;21.90;50.40;;;;;;5032004;28;20041;-35
2021/05/19 03:15:06;;;;;;;0.93;0.45;;;21.90;50.40;;;;;;5032820;28;20032;-35
2021/05/19 03:17:32;;;;;;;0.43;0.32;;;21.90;50.40;;;;;;5033036;28;20502;-43
2021/05/19 03:19:57;;;;;;;0.70;0.30;;;21.90;50.40;;;;;;5032153;28;20026;-35
2021/05/19 03:22:24;;;;;;;1.40;0.47;;;21.90;50.40;;;;;;5031948;28;20040;-35
2021/05/19 03:24:49;;;;;;;0.60;0.38;;;21.90;50.40;;;;;;5032928;28;20065;-35
2021/05/19 03:27:15;;;;;;;0.57;0.40;;;21.90;50.40;;;;;;5033264;28;20056;-36
2021/05/19 03:29:41;;;;;;;3.30;1.15;;;21.90;50.40;;;;;;5034650;28;20030;-35
2021/05/19 03:32:07;;;;;;;2.08;0.40;;;21.90;50.40;;;;;;5034083;28;20036;-35
2021/05/19 03:34:32;;;;;;;1.05;0.50;;;21.90;50.30;;;;;;5032296;28;20064;-41
2021/05/19 03:36:58;;;;;;;1.27;0.30;;;21.90;50.30;;;;;;5031581;28;20029;-35
2021/05/19 03:39:24;;;;;;;1.52;1.05;;;22.00;50.40;;;;;;5032199;28;20034;-35
2021/05/19 03:41:50;;;;;;;1.17;0.68;;;21.90;50.30;;;;;;5032278;28;20121;-35
2021/05/19 03:44:16;;;;;;;1.38;0.50;;;21.90;50.40;;;;;;5033474;28;20060;-35
2021/05/19 03:46:41;;;;;;;0.73;0.52;;;21.90;50.20;;;;;;5047782;28;20087;-36
2021/05/19 03:49:08;;;;;;;0.63;0.30;;;21.90;50.30;;;;;;5032061;28;20382;-35
2021/05/19 03:51:34;;;;;;;0.35;0.30;;;21.90;50.20;;;;;;5032074;28;20036;-44
2021/05/19 03:54:00;;;;;;;1.17;0.40;;;21.90;50.20;;;;;;5029528;28;20083;-35
2021/05/19 03:56:26;;;;;;;1.83;0.60;;;21.90;50.20;;;;;;5034652;28;20025;-35
2021/05/19 03:58:52;;;;;;;1.05;0.50;;;21.90;50.20;;;;;;5030763;28;20094;-35
2021/05/19 04:01:18;;;;;;;0.63;0.40;;;21.90;50.20;;;;;;5032809;28;20025;-38
2021/05/19 04:03:44;;;;;;;1.52;0.50;;;22.00;50.20;;;;;;5022901;28;20140;-35
2021/05/19 04:06:10;;;;;;;0.88;0.40;;;21.90;50.20;;;;;;5033441;28;20072;-38
2021/05/19 04:08:38;;;;;;;0.90;0.60;;;21.90;50.20;;;;;;5030546;28;20033;-35
2021/05/19 04:11:06;;;;;;;0.68;0.40;;;21.90;50.20;;;;;;5033054;28;20104;-35
2021/05/19 04:13:32;;;;;;;0.52;0.52;;;21.90;50.10;;;;;;5032373;28;20082;-43
2021/05/19 04:15:59;;;;;;;0.43;0.32;;;21.90;50.10;;;;;;5031387;28;20026;-35
2021/05/19 04:18:24;;;;;;;0.47;0.40;;;21.90;50.10;;;;;;5031930;28;20029;-35
2021/05/19 04:20:50;;;;;;;0.45;0.35;;;21.90;50.20;;;;;;5031959;28;20025;-36
2021/05/19 04:23:16;;;;;;;1.30;0.40;;;21.90;50.20;;;;;;5033144;28;20052;-35
2021/05/19 04:25:42;;;;;;;0.60;0.30;;;21.90;50.20;;;;;;5034357;28;20041;-35
2021/05/19 04:28:09;;;;;;;0.90;0.40;;;21.90;50.20;;;;;;5034509;28;20028;-34
2021/05/19 04:30:36;;;;;;;1.67;0.75;;;21.90;50.20;;;;;;5031332;28;20590;-44
2021/05/19 04:33:02;;;;;;;0.57;0.40;;;21.90;50.10;;;;;;5032594;28;20087;-35
2021/05/19 04:35:28;;;;;;;0.43;0.32;;;21.90;50.10;;;;;;5039804;28;20123;-35
2021/05/19 04:37:54;;;;;;;0.50;0.40;;;21.90;50.10;;;;;;5047063;28;20045;-35
2021/05/19 04:40:19;;;;;;;0.77;0.40;;;21.90;50.10;;;;;;5032179;28;20036;-35
2021/05/19 04:42:47;;;;;;;0.40;0.35;;;21.90;50.10;;;;;;5030955;28;20041;-36
2021/05/19 04:45:13;;;;;;;0.50;0.30;;;21.90;50.10;;;;;;5031993;28;20032;-35
2021/05/19 04:47:38;;;;;;;0.30;0.30;;;21.90;50.00;;;;;;5028514;28;20449;-36
2021/05/19 04:50:06;;;;;;;0.30;0.30;;;21.90;50.10;;;;;;5022689;28;20391;-35
2021/05/19 04:52:32;;;;;;;0.90;0.40;;;21.90;50.70;;;;;;5031820;28;20029;-38
2021/05/19 04:55:00;;;;;;;2.13;0.35;;;21.90;50.10;;;;;;5029371;28;20025;-36
2021/05/19 04:57:26;;;;;;;0.28;0.20;;;21.90;50.10;;;;;;5033087;28;20029;-35
2021/05/19 04:59:51;;;;;;;0.68;0.47;;;21.90;50.10;;;;;;5030890;28;20053;-35
2021/05/19 05:02:17;;;;;;;0.30;0.30;;;21.90;50.10;;;;;;5030407;28;20463;-35
2021/05/19 05:04:43;;;;;;;0.40;0.35;;;21.90;50.00;;;;;;5029669;28;20132;-35
2021/05/19 05:07:09;;;;;;;0.30;0.30;;;21.90;50.10;;;;;;5030046;28;20025;-35
2021/05/19 05:09:34;;;;;;;0.60;0.30;;;21.90;50.00;;;;;;5032011;28;20474;-44
2021/05/19 05:12:00;;;;;;;0.40;0.40;;;21.90;50.00;;;;;;5031191;28;20386;-35
2021/05/19 05:14:26;;;;;;;2.33;0.52;;;21.90;50.10;;;;;;5031291;28;20479;-35
2021/05/19 05:16:51;;;;;;;0.70;0.47;;;21.90;50.10;;;;;;5030808;28;20351;-35
2021/05/19 05:19:17;;;;;;;0.85;0.30;;;21.90;50.00;;;;;;5036935;28;20025;-35
2021/05/19 05:21:43;;;;;;;0.57;0.57;;;21.90;50.00;;;;;;5030340;28;20052;-35
2021/05/19 05:24:09;;;;;;;1.25;0.38;;;21.90;50.00;;;;;;5031233;28;20029;-35
2021/05/19 05:26:34;;;;;;;1.85;0.45;;;21.90;50.00;;;;;;5032534;28;20034;-47
2021/05/19 05:29:00;;;;;;;0.60;0.47;;;21.90;50.00;;;;;;5029401;28;20036;-35
2021/05/19 05:31:26;;;;;;;1.52;0.50;;;21.90;50.00;;;;;;5030182;28;20037;-35
2021/05/19 05:33:52;;;;;;;0.98;0.35;;;21.90;50.00;;;;;;5028974;28;20033;-40
2021/05/19 05:36:18;;;;;;;0.35;0.35;;;21.90;50.00;;;;;;5031734;28;21587;-36
2021/05/19 05:38:44;;;;;;;0.63;0.50;;;21.90;50.00;;;;;;5029360;28;20029;-35
2021/05/19 05:41:10;;;;;;;0.93;0.40;;;21.90;50.00;;;;;;5030759;28;20033;-44
2021/05/19 05:43:35;;;;;;;0.40;0.30;;;21.90;50.70;;;;;;5028547;28;20498;-46
2021/05/19 05:46:01;;;;;;;0.45;0.30;;;21.90;50.00;;;;;;5030682;28;20052;-35
2021/05/19 05:48:27;;;;;;;1.33;0.38;;;21.90;50.00;;;;;;5031140;28;20087;-35
2021/05/19 05:50:53;;;;;;;1.92;0.60;;;21.90;50.00;;;;;;5030550;28;20040;-35
2021/05/19 05:53:19;;;;;;;0.82;0.63;;;21.90;50.00;;;;;;5031011;28;20041;-39
2021/05/19 05:55:44;;;;;;;0.75;0.65;;;21.90;50.00;;;;;;5030733;28;20033;-35
2021/05/19 05:58:10;;;;;;;3.88;1.48;;;21.90;50.00;;;;;;5032123;28;20042;-35
2021/05/19 06:00:36;;;;;;;1.10;0.77;;;21.90;50.00;;;;;;5030134;28;20101;-44
2021/05/19 06:03:04;;;;;;;0.63;0.40;;;21.90;50.00;;;;;;5031091;28;20025;-34
2021/05/19 06:05:29;;;;;;;1.70;0.47;;;21.90;50.00;;;;;;5031230;28;20079;-35
2021/05/19 06:07:55;;;;;;;2.33;0.60;;;21.90;50.20;;;;;;5030083;28;20640;-34
2021/05/19 06:10:21;;;;;;;0.95;0.55;;;22.00;50.50;;;;;;5030489;28;20025;-34
2021/05/19 06:12:47;;;;;;;3.13;0.80;;;22.00;50.20;;;;;;5043205;28;20390;-34
2021/05/19 06:15:13;;;;;;;4.75;0.75;;;22.00;50.50;;;;;;5035105;28;20486;-34
2021/05/19 06:17:38;;;;;;;3.10;0.90;;;22.10;50.80;;;;;;5028743;28;20478;-42
2021/05/19 06:20:05;;;;;;;4.35;0.90;;;22.00;50.70;;;;;;5030397;28;20488;-35
2021/05/19 06:22:31;;;;;;;4.88;1.10;;;22.00;50.70;;;;;;5030988;28;20116;-35
2021/05/19 06:24:57;;;;;;;1.83;0.75;;;22.00;50.70;;;;;;5028633;28;20168;-34
2021/05/19 06:27:23;;;;;;;2.25;0.80;;;22.00;50.80;;;;;;5035885;28;20025;-37
2021/05/19 06:29:49;;;;;;;2.88;0.50;;;22.00;50.90;;;;;;5023439;28;20022;-34
2021/05/19 06:32:14;;;;;;;5.78;1.20;;;22.00;51.00;;;;;;5030685;28;20025;-34
2021/05/19 06:34:40;;;;;;;6.32;1.25;;;22.00;51.10;;;;;;5028847;28;20029;-38
2021/05/19 06:37:06;;;;;;;5.10;0.82;;;22.00;51.30;;;;;;5028223;28;20057;-37
2021/05/19 06:39:32;;;;;;;2.72;0.75;;;22.00;51.30;;;;;;5030633;28;20463;-35
2021/05/19 06:41:58;;;;;;;7.30;1.13;;;22.10;51.50;;;;;;5028789;28;20596;-37
2021/05/19 06:44:24;;;;;;;7.57;1.05;;;22.10;51.60;;;;;;5030720;28;20030;-35
2021/05/19 06:46:50;;;;;;;4.82;1.00;;;22.10;51.70;;;;;;5031811;28;21693;-35
2021/05/19 06:49:16;;;;;;;2.83;0.93;;;22.10;51.80;;;;;;5033693;28;20039;-37
2021/05/19 06:51:42;;;;;;;2.13;0.82;;;22.10;51.80;;;;;;5032820;28;20097;-35
2021/05/19 06:54:09;;;;;;;4.30;1.20;;;22.10;51.90;;;;;;5015275;28;20022;-37
2021/05/19 06:56:34;;;;;;;9.65;1.70;;;22.00;50.40;;;;;;5041368;28;20068;-37
2021/05/19 06:59:01;;;;;;;7.70;1.65;;;21.80;57.70;;;;;;5032895;28;20069;-36
2021/05/19 07:01:27;;;;;;;9.25;2.25;;;21.80;54.30;;;;;;5034103;28;20028;-41
2021/05/19 07:03:54;;;;;;;4.70;1.17;;;21.80;52.20;;;;;;5032952;28;20056;-37
2021/05/19 07:06:21;;;;;;;4.47;1.40;;;21.80;53.80;;;;;;5035498;28;20021;-36
2021/05/19 07:08:47;;;;;;;2.22;1.08;;;21.80;52.50;;;;;;5031999;28;20116;-39
2021/05/19 07:11:14;;;;;;;3.83;1.33;;;21.80;50.20;;;;;;5033693;28;20421;-37
2021/05/19 07:13:40;;;;;;;5.22;0.95;;;21.80;50.40;;;;;;5033374;28;20049;-44
2021/05/19 07:16:07;;;;;;;3.33;1.13;;;21.80;49.00;;;;;;5033539;28;20041;-37
2021/05/19 07:18:33;;;;;;;3.45;0.80;;;21.80;49.40;;;;;;5034191;28;20083;-36
2021/05/19 07:20:58;;;;;;;1.67;0.93;;;21.80;48.20;;;;;;5032328;28;20025;-37
2021/05/19 07:23:24;;;;;;;2.47;0.82;;;21.80;48.70;;;;;;5034028;28;20479;-37
2021/05/19 07:25:50;;;;;;;1.42;0.80;;;21.80;49.30;;;;;;5032618;28;20038;-38
2021/05/19 07:28:16;;;;;;;1.40;0.82;;;21.80;48.50;;;;;;5034767;28;20494;-35
2021/05/19 07:30:44;;;;;;;0.68;0.60;;;21.80;48.00;;;;;;5025784;28;20091;-37
2021/05/19 07:33:11;;;;;;;3.53;0.80;;;21.80;47.70;;;;;;5032228;28;20484;-37
2021/05/19 07:35:38;;;;;;;4.78;0.77;;;21.80;48.00;;;;;;5033934;28;20022;-43
2021/05/19 07:38:08;;;;;;;3.42;1.48;;;21.70;47.90;;;;;;5032527;28;20033;-35
2021/05/19 07:40:34;;;;;;;2.05;0.70;;;21.70;47.90;;;;;;5033130;28;20025;-35
2021/05/19 07:43:00;;;;;;;1.65;0.65;;;21.70;49.30;;;;;;5032146;28;20064;-35
2021/05/19 07:45:26;;;;;;;1.42;0.90;;;21.80;49.40;;;;;;5032937;28;20483;-35
2021/05/19 07:47:51;;;;;;;1.70;0.80;;;21.80;49.90;;;;;;5032316;28;20034;-35
2021/05/19 07:50:17;;;;;;;1.92;0.88;;;21.90;50.00;;;;;;5045106;28;20087;-35
2021/05/19 07:52:43;;;;;;;3.22;0.80;;;21.90;50.10;;;;;;5032449;28;20087;-35
2021/05/19 07:55:18;;;;;;;1.30;0.70;;;21.90;50.40;;;;;;5034048;28;20025;-35
2021/05/19 07:57:50;;;;;;;1.55;0.50;;;21.90;50.50;;;;;;5032759;28;20052;-36
2021/05/19 08:00:24;;;;;;;2.22;0.80;;;21.90;50.50;;;;;;5034269;28;20049;-35
2021/05/19 08:02:50;;;;;;;1.63;0.80;;;22.00;50.60;;;;;;5032003;28;20022;-34
2021/05/19 08:05:16;;;;;;;2.80;0.60;;;21.90;50.90;;;;;;5033090;28;20414;-34
2021/05/19 08:07:41;;;;;;;1.42;0.70;;;22.00;51.00;;;;;;5032096;28;20037;-44
2021/05/19 08:10:07;;;;;;;1.23;0.50;;;22.00;51.20;;;;;;5032722;28;20033;-35
2021/05/19 08:12:33;;;;;;;2.97;0.70;;;22.00;51.40;;;;;;5032554;28;20052;-35
2021/05/19 08:15:02;;;;;;;3.13;0.73;;;22.00;51.40;;;;;;5032223;28;20025;-35
2021/05/19 08:17:28;;;;;;;0.95;0.60;;;22.00;51.50;;;;;;5031943;28;20421;-34
2021/05/19 08:19:53;;;;;;;2.13;0.73;;;22.00;51.50;;;;;;5030403;28;20022;-34
2021/05/19 08:22:19;;;;;;;1.20;0.70;;;22.00;51.40;;;;;;5031342;28;20084;-34
2021/05/19 08:24:45;;;;;;;1.63;0.63;;;22.10;51.50;;;;;;5025808;28;20037;-34
2021/05/19 08:27:12;;;;;;;1.67;0.52;;;22.10;51.50;;;;;;5032048;28;20032;-35
2021/05/19 08:29:38;;;;;;;1.10;0.52;;;22.10;51.40;;;;;;5030672;28;20034;-34
2021/05/19 08:32:04;;;;;;;1.17;0.60;;;22.10;51.40;;;;;;5031687;28;20028;-34
2021/05/19 08:34:30;;;;;;;1.17;0.60;;;22.10;51.40;;;;;;5030681;28;20112;-34
2021/05/19 08:36:56;;;;;;;1.45;0.63;;;22.20;51.30;;;;;;5031508;28;20101;-35
2021/05/19 08:39:22;;;;;;;3.33;0.63;;;22.20;51.20;;;;;;5032035;28;20025;-40
2021/05/19 08:41:48;;;;;;;2.83;0.90;;;22.20;51.20;;;;;;5031207;28;20151;-35
2021/05/19 08:44:15;;;;;;;3.47;0.90;;;22.20;51.20;;;;;;5030993;28;20359;-34
2021/05/19 08:46:46;;;;;;;1.70;0.57;;;22.20;51.10;;;;;;5031841;28;20033;-41
2021/05/19 08:49:14;;;;;;;1.58;0.60;;;22.20;51.00;;;;;;5031042;28;20022;-34
2021/05/19 08:51:40;;;;;;;2.85;0.82;;;22.30;51.00;;;;;;5030743;28;20474;-41
2021/05/19 08:54:08;;;;;;;0.88;0.60;;;22.30;51.30;;;;;;5033433;28;20040;-34
2021/05/19 08:56:41;;;;;;;3.80;1.30;;;22.30;51.30;;;;;;5040298;28;20037;-35
2021/05/19 08:59:09;;;;;;;0.82;0.50;;;22.30;51.10;;;;;;5031172;28;20081;-35
2021/05/19 09:01:48;;;;;;;0.60;0.50;;;22.30;51.00;;;;;;5031690;28;20044;-34
2021/05/19 09:04:23;;;;;;;1.02;0.52;;;22.30;51.00;;;;;;5030237;28;20029;-34
2021/05/19 09:07:01;;;;;;;1.40;0.60;;;22.30;51.10;;;;;;5030972;28;20104;-35
2021/05/19 09:09:29;;;;;;;4.47;0.65;;;22.30;51.00;;;;;;5030975;28;20030;-36
2021/05/19 09:12:08;;;;;;;0.90;0.60;;;22.30;50.70;;;;;;5030899;28;20043;-35
2021/05/19 09:14:45;;;;;;;2.05;0.60;;;22.30;50.70;;;;;;5030958;28;20082;-35
2021/05/19 09:17:23;;;;;;;1.05;0.55;;;22.40;50.80;;;;;;5031313;28;20366;-35
2021/05/19 09:19:59;;;;;;;1.15;0.60;;;22.40;51.00;;;;;;5024124;28;20056;-35
2021/05/19 09:22:29;;;;;;;0.88;0.60;;;22.50;51.40;;;;;;5031532;28;20040;-35
2021/05/19 09:24:56;;;;;;;0.98;0.50;;;22.50;51.10;;;;;;5029347;28;20040;-35
2021/05/19 09:27:22;;;;;;;2.83;0.90;;;22.50;51.10;;;;;;5033690;28;20025;-35
2021/05/19 09:29:52;;;;;;;1.13;0.50;;;22.50;50.80;;;;;;5030338;28;20029;-35
2021/05/19 09:32:20;;;;;;;1.75;0.60;;;22.60;51.00;;;;;;5030415;28;20056;-35
2021/05/19 09:34:53;;;;;;;1.60;0.80;;;22.60;51.00;;;;;;5030303;28;20036;-36
2021/05/19 09:37:30;;;;;;;0.80;0.50;;;22.50;50.70;;;;;;5031444;28;20041;-36
2021/05/19 09:40:11;;;;;;;1.38;0.55;;;22.50;51.00;;;;;;5029368;28;20124;-35
2021/05/19 09:42:36;;;;;;;2.30;0.50;;;22.60;50.80;;;;;;5031412;28;20042;-35
2021/05/19 09:45:25;;;;;;;0.88;0.55;;;22.60;50.60;;;;;;5030086;28;20596;-35
2021/05/19 09:47:54;;;;;;;0.90;0.40;;;22.60;51.20;;;;;;5030601;28;20039;-35
2021/05/19 09:50:40;;;;;;;0.60;0.40;;;22.60;50.40;;;;;;5037489;28;20474;-36
2021/05/19 09:53:11;;;;;;;0.77;0.40;;;22.60;50.20;;;;;;5030159;28;20084;-35
2021/05/19 09:55:39;;;;;;;1.98;0.60;;;22.70;50.30;;;;;;5031361;28;20037;-35
2021/05/19 09:58:06;;;;;;;1.20;0.40;;;22.60;50.20;;;;;;5036759;28;20747;-35
2021/05/19 10:00:32;;;;;;;1.08;0.63;;;22.60;50.30;;;;;;5030651;28;20073;-35
2021/05/19 10:03:00;;;;;;;1.20;0.82;;;22.60;50.20;;;;;;5030510;28;20087;-35
2021/05/19 10:05:28;;;;;;;1.02;0.50;;;22.60;50.20;;;;;;5030088;28;20053;-35
2021/05/19 10:07:55;;;;;;;1.23;0.43;;;22.60;50.10;;;;;;5030615;28;20025;-35
2021/05/19 10:10:26;;;;;;;6.93;0.60;;;22.60;49.30;;;;;;5029828;28;20419;-35
2021/05/19 10:12:53;;;;;;;2.35;0.70;;;22.40;46.00;;;;;;5027612;28;20041;-36
2021/05/19 10:15:27;;;;;;;4.13;0.82;;;22.40;47.40;;;;;;5029624;28;20033;-43
2021/05/19 10:18:01;;;;;;;2.97;0.75;;;22.50;48.10;;;;;;5029672;28;20040;-35
2021/05/19 10:20:30;;;;;;;2.55;0.68;;;22.60;48.00;;;;;;5030968;28;20030;-35
2021/05/19 10:22:56;;;;;;;3.30;0.50;;;22.60;48.40;;;;;;5033939;28;20498;-36
2021/05/19 10:25:38;;;;;;;2.97;0.70;;;22.60;48.50;;;;;;5034881;28;20030;-35
2021/05/19 10:28:12;;;;;;;1.45;0.52;;;22.60;48.60;;;;;;5033404;28;20049;-35
2021/05/19 10:30:48;;;;;;;0.75;0.45;;;22.60;48.90;;;;;;5033825;28;20116;-35
2021/05/19 10:33:29;;;;;;;2.50;0.75;;;22.60;49.00;;;;;;5033434;28;20086;-36
2021/05/19 10:35:59;;;;;;;0.98;0.60;;;22.70;49.90;;;;;;5028413;28;20032;-35
2021/05/19 10:38:33;;;;;;;2.17;0.73;;;22.70;49.50;;;;;;5034737;28;20022;-35
2021/05/19 10:41:01;;;;;;;1.70;0.40;;;22.70;49.50;;;;;;5033989;28;20513;-35
2021/05/19 10:43:50;;;;;;;0.95;0.60;;;22.70;49.60;;;;;;5038374;28;20453;-37
2021/05/19 10:47:08;;;;;;;2.15;0.70;;;22.70;49.50;;;;;;5034005;28;20056;-35
2021/05/19 10:49:45;;;;;;;1.25;0.50;;;22.70;49.60;;;;;;5034254;28;20072;-35
2021/05/19 10:52:21;;;;;;;0.75;0.47;;;22.70;49.80;;;;;;5034192;28;20041;-36
2021/05/19 10:57:58;;;;;;;3.05;0.85;;;22.70;49.30;;;;;;5038194;28;20040;-36
2021/05/19 11:00:26;;;;;;;0.80;0.40;;;22.80;49.30;;;;;;5034096;28;20363;-35
2021/05/19 11:02:58;;;;;;;2.38;0.40;;;22.70;49.60;;;;;;5033008;28;20044;-35
2021/05/19 11:05:35;;;;;;;0.93;0.65;;;22.70;49.90;;;;;;5052465;28;20044;-35
2021/05/19 11:08:06;;;;;;;0.90;0.50;;;22.70;50.00;;;;;;5032635;28;20029;-36
2021/05/19 11:10:37;;;;;;;;;;;22.70;49.80;;;;;;5032459;28;20132;-36
2021/05/19 11:13:03;;;;;;;1.02;0.50;;;22.70;49.40;;;;;;5033173;28;19909;-36
2021/05/19 11:15:41;;;;;;;1.35;0.60;;;22.80;49.60;;;;;;5033191;28;20379;-35
2021/05/19 11:21:18;;;;;;;1.40;0.50;;;22.70;49.10;;;;;;5032862;28;20021;-36
2021/05/19 11:24:02;;;;;;;1.52;0.77;;;22.90;49.10;;;;;;5033207;28;20036;-51
2021/05/19 11:26:35;;;;;;;1.65;0.60;;;22.90;48.90;;;;;;5040088;28;20471;-35
2021/05/19 11:29:01;;;;;;;0.75;0.40;;;22.90;49.30;;;;;;5024923;28;20381;-35
2021/05/19 11:31:33;;;;;;;1.05;0.60;;;22.80;49.60;;;;;;5033396;28;20032;-35
2021/05/19 11:34:00;;;;;;;;;;;22.80;49.70;;;;;;5033516;28;20379;-35
2021/05/19 11:36:44;;;;;;;1.98;0.43;;;22.70;49.70;;;;;;5032179;28;19920;-40
2021/05/19 11:39:24;;;;;;;1.40;0.55;;;22.80;49.80;;;;;;5029219;28;20029;-36
2021/05/19 11:41:52;;;;;;;0.80;0.52;;;22.90;49.20;;;;;;5032347;28;20033;-36
2021/05/19 11:44:55;;;;;;;0.30;0.30;;;22.90;49.20;;;;;;5033208;28;20057;-38
2021/05/19 11:47:37;;;;;;;1.33;0.73;;;23.00;48.70;;;;;;5000062;28;20373;-36
2021/05/19 11:50:06;;;;;;;1.20;0.40;;;23.00;49.50;;;;;;5025042;28;20037;-39
2021/05/19 11:52:49;;;;;;;0.60;0.47;;;22.90;49.40;;;;;;5032732;28;20037;-35
2021/05/19 11:55:32;;;;;;;0.57;0.40;;;22.90;49.10;;;;;;5033376;28;20087;-36
2021/05/19 11:58:13;;;;;;;2.90;0.50;;;22.80;49.50;;;;;;5039464;28;20026;-35
2021/05/19 12:00:52;;;;;;;0.50;0.40;;;22.90;49.30;;;;;;5030768;28;20064;-44
2021/05/19 12:03:20;;;;;;;0.70;0.50;;;22.90;48.90;;;;;;5029988;28;20470;-35
2021/05/19 12:05:55;;;;;;;2.03;0.60;;;22.90;48.70;;;;;;5030980;28;20040;-43
2021/05/19 12:08:23;;;;;;;3.00;1.00;;;23.00;48.60;;;;;;5030607;28;20079;-35
2021/05/19 12:11:08;;;;;;;1.17;0.55;;;23.00;48.70;;;;;;5032540;28;20036;-42
2021/05/19 12:13:37;;;;;;;2.13;0.75;;;22.90;48.40;;;;;;5031582;28;20032;-35
2021/05/19 12:16:07;;;;;;;1.38;0.47;;;22.90;48.50;;;;;;5032164;28;20087;-35
2021/05/19 12:18:33;;;;;;;1.15;0.40;;;23.00;48.40;;;;;;5032935;28;20040;-35
2021/05/19 12:21:06;;;;;;;1.10;0.50;;;23.00;48.30;;;;;;5031223;28;20109;-35
2021/05/19 12:23:31;;;;;;;0.85;0.50;;;22.90;48.30;;;;;;5032717;28;20124;-35
2021/05/19 12:25:57;;;;;;;1.05;0.40;;;22.90;48.40;;;;;;5033820;28;20108;-36
2021/05/19 12:28:24;;;;;;;0.65;0.43;;;23.00;48.30;;;;;;5039267;28;20080;-35
2021/05/19 12:31:00;;;;;;;0.80;0.40;;;23.00;48.20;;;;;;5029804;28;20379;-42
2021/05/19 12:33:46;;;;;;;0.57;0.40;;;23.00;48.20;;;;;;5031760;28;20033;-35
2021/05/19 12:36:29;;;;;;;0.90;0.52;;;23.00;48.20;;;;;;5031758;28;20084;-35
2021/05/19 12:38:59;;;;;;;0.73;0.50;;;23.00;48.80;;;;;;5014773;28;20036;-35
2021/05/19 12:41:51;;;;;;;0.40;0.32;;;23.00;48.30;;;;;;5031841;28;20417;-35
2021/05/19 12:44:19;;;;;;;0.60;0.40;;;23.00;48.10;;;;;;5031954;28;20025;-35
2021/05/19 12:47:07;;;;;;;1.83;0.32;;;23.00;48.10;;;;;;5031879;28;20036;-35
2021/05/19 12:49:41;;;;;;;1.15;0.35;;;22.90;48.30;;;;;;5032160;28;20033;-36
2021/05/19 12:52:18;;;;;;;2.90;0.40;;;22.90;48.20;;;;;;5048987;28;20033;-35
2021/05/19 12:54:49;;;;;;;4.32;0.77;;;22.90;48.30;;;;;;5030000;28;20025;-36
2021/05/19 12:57:19;;;;;;;1.17;0.50;;;22.90;48.40;;;;;;5029093;28;20120;-35
2021/05/19 12:59:54;;;;;;;2.60;0.95;;;22.90;48.20;;;;;;5029949;28;20049;-35
2021/05/19 13:02:24;;;;;;;2.60;0.85;;;23.00;48.20;;;;;;5032075;28;20120;-35